Station Historical Data
Daily Summary for May 25, 2017 Units:  Both    English   Metric
« Previous Day
Next Day »
Daily Weekly Monthly Yearly Custom
  High: Low: Average:
Temperature: 65.6 °F /  18.7 °C 55.2 °F /  12.9 °C 58.3 °F /  14.6 °C
Dew Point: 59.4 °F /  15.2 °C 52.7 °F /  11.5 °C 55 °F /  12.8 °C
Humidity: 93% 63% 89%
Wind Speed: 10.0mph /  16.1km/h - 2.4mph /  3.9km/h
Wind Gust: 13.0mph /  20.9km/h - -
Wind- - East
Pressure: 29.60 in /  1002.3 hPa 29.43 in /  996.5 hPa -
Precipitation: 1.67 in /  42.42 mm    
Historical Graphs
 
 
Tabular Data for May 25, 2017
Time Temperature Dew Point Pressure Wind Wind Speed Wind Gust Humidity Rainfall Rate (Hourly)
00:00 65.6 °F /  18.7 °C 52.7 °F /  11.5 °C 29.60in /  1002.3hPa ESE 2.0mph /  3.2km/h 6.0mph /  9.7km/h 63% 0.00in /  0mm
00:05 65.2 °F /  18.4 °C 52.7 °F /  11.5 °C 29.59in /  1001.9hPa South 3.0mph /  4.8km/h 7.0mph /  11.3km/h 64% 0.00in /  0mm
00:10 64.8 °F /  18.2 °C 53.2 °F /  11.8 °C 29.60in /  1002.3hPa East 7.0mph /  11.3km/h 8.0mph /  12.9km/h 66% 0.00in /  0mm
00:15 64.4 °F /  18 °C 53.2 °F /  11.8 °C 29.60in /  1002.3hPa SE 3.0mph /  4.8km/h 8.0mph /  12.9km/h 67% 0.00in /  0mm
00:20 64.0 °F /  17.8 °C 53.6 °F /  12 °C 29.60in /  1002.3hPa SE 2.0mph /  3.2km/h 7.0mph /  11.3km/h 69% 0.00in /  0mm
00:25 63.6 °F /  17.6 °C 53.6 °F /  12 °C 29.60in /  1002.3hPa SE 2.0mph /  3.2km/h 8.0mph /  12.9km/h 70% 0.01in /  0.25mm
00:30 62.9 °F /  17.2 °C 53.7 °F /  12.1 °C 29.60in /  1002.3hPa SSE 4.0mph /  6.4km/h 8.0mph /  12.9km/h 72% 0.01in /  0.25mm
00:35 62.4 °F /  16.9 °C 54.0 °F /  12.2 °C 29.60in /  1002.3hPa SE 3.0mph /  4.8km/h 7.0mph /  11.3km/h 74% 0.01in /  0.25mm
00:40 62.1 °F /  16.7 °C 54.1 °F /  12.3 °C 29.60in /  1002.3hPa SSE 3.0mph /  4.8km/h 8.0mph /  12.9km/h 75% 0.02in /  0.51mm
00:45 61.8 °F /  16.6 °C 54.2 °F /  12.3 °C 29.60in /  1002.3hPa SE 2.0mph /  3.2km/h 8.0mph /  12.9km/h 76% 0.02in /  0.51mm
00:50 61.7 °F /  16.5 °C 54.1 °F /  12.3 °C 29.59in /  1001.9hPa SE 2.0mph /  3.2km/h 7.0mph /  11.3km/h 76% 0.02in /  0.51mm
00:55 61.6 °F /  16.4 °C 54.3 °F /  12.4 °C 29.59in /  1001.9hPa SE 2.0mph /  3.2km/h 4.0mph /  6.4km/h 77% 0.03in /  0.76mm
01:00 61.3 °F /  16.3 °C 54.4 °F /  12.4 °C 29.60in /  1002.3hPa ESE 2.0mph /  3.2km/h 7.0mph /  11.3km/h 78% 0.03in /  0.76mm
01:05 60.9 °F /  16.1 °C 54.0 °F /  12.2 °C 29.59in /  1001.9hPa ESE 2.0mph /  3.2km/h 7.0mph /  11.3km/h 78% 0.03in /  0.76mm
01:10 60.7 °F /  15.9 °C 53.8 °F /  12.1 °C 29.59in /  1001.9hPa ESE 2.0mph /  3.2km/h 8.0mph /  12.9km/h 78% 0.04in /  1.02mm
01:15 60.5 °F /  15.8 °C 54.3 °F /  12.4 °C 29.59in /  1001.9hPa East 1.0mph /  1.6km/h 5.0mph /  8km/h 80% 0.04in /  1.02mm
01:20 60.2 °F /  15.7 °C 54.0 °F /  12.2 °C 29.59in /  1001.9hPa ENE 2.0mph /  3.2km/h 6.0mph /  9.7km/h 80% 0.05in /  1.27mm
01:25 60.0 °F /  15.6 °C 54.2 °F /  12.3 °C 29.59in /  1001.9hPa SE 2.0mph /  3.2km/h 9.0mph /  14.5km/h 81% 0.04in /  1.02mm
01:30 59.9 °F /  15.5 °C 54.1 °F /  12.3 °C 29.59in /  1001.9hPa ESE 5.0mph /  8km/h 8.0mph /  12.9km/h 81% 0.04in /  1.02mm
01:35 59.7 °F /  15.4 °C 54.2 °F /  12.3 °C 29.58in /  1001.6hPa East 3.0mph /  4.8km/h 8.0mph /  12.9km/h 82% 0.04in /  1.02mm
01:40 59.7 °F /  15.4 °C 54.2 °F /  12.3 °C 29.58in /  1001.6hPa ENE 1.0mph /  1.6km/h 8.0mph /  12.9km/h 82% 0.04in /  1.02mm
01:45 59.6 °F /  15.3 °C 54.1 °F /  12.3 °C 29.58in /  1001.6hPa East 3.0mph /  4.8km/h 8.0mph /  12.9km/h 82% 0.04in /  1.02mm
01:50 59.6 °F /  15.3 °C 54.4 °F /  12.4 °C 29.58in /  1001.6hPa East 2.0mph /  3.2km/h 7.0mph /  11.3km/h 83% 0.04in /  1.02mm
01:55 59.4 °F /  15.2 °C 54.2 °F /  12.3 °C 29.58in /  1001.6hPa ENE 2.0mph /  3.2km/h 5.0mph /  8km/h 83% 0.03in /  0.76mm
02:00 59.3 °F /  15.2 °C 54.5 °F /  12.5 °C 29.58in /  1001.6hPa East 2.0mph /  3.2km/h 5.0mph /  8km/h 84% 0.03in /  0.76mm
02:05 59.2 °F /  15.1 °C 54.4 °F /  12.4 °C 29.58in /  1001.6hPa East 5.0mph /  8km/h 5.0mph /  8km/h 84% 0.03in /  0.76mm
02:10 59.2 °F /  15.1 °C 54.4 °F /  12.4 °C 29.58in /  1001.6hPa Calm   7.0mph /  11.3km/h 84% 0.02in /  0.51mm
02:15 59.2 °F /  15.1 °C 54.4 °F /  12.4 °C 29.58in /  1001.6hPa ENE 2.0mph /  3.2km/h 7.0mph /  11.3km/h 84% 0.02in /  0.51mm
02:20 59.1 °F /  15.1 °C 54.3 °F /  12.4 °C 29.57in /  1001.2hPa East 2.0mph /  3.2km/h 6.0mph /  9.7km/h 84% 0.01in /  0.25mm
02:25 59.1 °F /  15.1 °C 54.3 °F /  12.4 °C 29.57in /  1001.2hPa ENE 2.0mph /  3.2km/h 5.0mph /  8km/h 84% 0.01in /  0.25mm
02:30 59.1 °F /  15.1 °C 54.3 °F /  12.4 °C 29.57in /  1001.2hPa East 1.0mph /  1.6km/h 5.0mph /  8km/h 84% 0.01in /  0.25mm
02:35 59.0 °F /  15 °C 54.5 °F /  12.5 °C 29.57in /  1001.2hPa East 3.0mph /  4.8km/h 3.0mph /  4.8km/h 85% 0.01in /  0.25mm
02:40 59.0 °F /  15 °C 54.2 °F /  12.3 °C 29.57in /  1001.2hPa ESE 1.0mph /  1.6km/h 6.0mph /  9.7km/h 84% 0.00in /  0mm
02:45 59.0 °F /  15 °C 54.2 °F /  12.3 °C 29.57in /  1001.2hPa East 2.0mph /  3.2km/h 6.0mph /  9.7km/h 84% 0.00in /  0mm
02:50 58.9 °F /  14.9 °C 54.4 °F /  12.4 °C 29.57in /  1001.2hPa ENE 2.0mph /  3.2km/h 6.0mph /  9.7km/h 85% 0.00in /  0mm
02:55 58.7 °F /  14.8 °C 54.2 °F /  12.3 °C 29.57in /  1001.2hPa ENE 2.0mph /  3.2km/h 6.0mph /  9.7km/h 85% 0.01in /  0.25mm
03:00 58.5 °F /  14.7 °C 54.3 °F /  12.4 °C 29.57in /  1001.2hPa NE 2.0mph /  3.2km/h 6.0mph /  9.7km/h 86% 0.01in /  0.25mm
03:05 58.4 °F /  14.7 °C 54.2 °F /  12.3 °C 29.57in /  1001.2hPa Calm   5.0mph /  8km/h 86% 0.01in /  0.25mm
03:10 58.4 °F /  14.7 °C 54.5 °F /  12.5 °C 29.57in /  1001.2hPa East 1.0mph /  1.6km/h 3.0mph /  4.8km/h 87% 0.01in /  0.25mm
03:15 58.3 °F /  14.6 °C 54.4 °F /  12.4 °C 29.57in /  1001.2hPa East 2.0mph /  3.2km/h 4.0mph /  6.4km/h 87% 0.03in /  0.76mm
03:20 58.3 °F /  14.6 °C 54.4 °F /  12.4 °C 29.57in /  1001.2hPa ENE 2.0mph /  3.2km/h 4.0mph /  6.4km/h 87% 0.03in /  0.76mm
03:25 58.2 °F /  14.6 °C 54.3 °F /  12.4 °C 29.58in /  1001.6hPa ENE 2.0mph /  3.2km/h 3.0mph /  4.8km/h 87% 0.03in /  0.76mm
03:30 58.2 °F /  14.6 °C 54.7 °F /  12.6 °C 29.57in /  1001.2hPa ENE 1.0mph /  1.6km/h 5.0mph /  8km/h 88% 0.03in /  0.76mm
03:35 58.2 °F /  14.6 °C 54.7 °F /  12.6 °C 29.57in /  1001.2hPa East 1.0mph /  1.6km/h 6.0mph /  9.7km/h 88% 0.03in /  0.76mm
03:40 58.1 °F /  14.5 °C 54.6 °F /  12.6 °C 29.57in /  1001.2hPa East 3.0mph /  4.8km/h 5.0mph /  8km/h 88% 0.05in /  1.27mm
03:45 58.0 °F /  14.4 °C 54.5 °F /  12.5 °C 29.57in /  1001.2hPa East 2.0mph /  3.2km/h 3.0mph /  4.8km/h 88% 0.05in /  1.27mm
03:50 58.0 °F /  14.4 °C 54.8 °F /  12.7 °C 29.57in /  1001.2hPa East 1.0mph /  1.6km/h 3.0mph /  4.8km/h 89% 0.05in /  1.27mm
03:55 58.0 °F /  14.4 °C 54.8 °F /  12.7 °C 29.57in /  1001.2hPa East 2.0mph /  3.2km/h 5.0mph /  8km/h 89% 0.06in /  1.52mm
04:00 57.9 °F /  14.4 °C 54.7 °F /  12.6 °C 29.58in /  1001.6hPa East 2.0mph /  3.2km/h 7.0mph /  11.3km/h 89% 0.09in /  2.29mm
04:05 57.7 °F /  14.3 °C 54.5 °F /  12.5 °C 29.57in /  1001.2hPa ESE 2.0mph /  3.2km/h 7.0mph /  11.3km/h 89% 0.15in /  3.81mm
04:10 57.6 °F /  14.2 °C 54.4 °F /  12.4 °C 29.57in /  1001.2hPa ESE 2.0mph /  3.2km/h 7.0mph /  11.3km/h 89% 0.16in /  4.06mm
04:15 57.5 °F /  14.2 °C 54.6 °F /  12.6 °C 29.57in /  1001.2hPa ENE 1.0mph /  1.6km/h 6.0mph /  9.7km/h 90% 0.15in /  3.81mm
04:20 57.4 °F /  14.1 °C 54.5 °F /  12.5 °C 29.57in /  1001.2hPa East 2.0mph /  3.2km/h 7.0mph /  11.3km/h 90% 0.16in /  4.06mm
04:25 57.4 °F /  14.1 °C 54.5 °F /  12.5 °C 29.57in /  1001.2hPa ENE 1.0mph /  1.6km/h 5.0mph /  8km/h 90% 0.16in /  4.06mm
04:30 57.3 °F /  14.1 °C 54.4 °F /  12.4 °C 29.57in /  1001.2hPa NE 4.0mph /  6.4km/h 5.0mph /  8km/h 90% 0.16in /  4.06mm
04:35 57.3 °F /  14.1 °C 54.4 °F /  12.4 °C 29.57in /  1001.2hPa ENE 2.0mph /  3.2km/h 5.0mph /  8km/h 90% 0.17in /  4.32mm
04:40 57.2 °F /  14 °C 54.3 °F /  12.4 °C 29.57in /  1001.2hPa East 3.0mph /  4.8km/h 6.0mph /  9.7km/h 90% 0.15in /  3.81mm
04:45 57.2 °F /  14 °C 54.3 °F /  12.4 °C 29.57in /  1001.2hPa East 2.0mph /  3.2km/h 5.0mph /  8km/h 90% 0.15in /  3.81mm
04:50 57.1 °F /  13.9 °C 54.2 °F /  12.3 °C 29.57in /  1001.2hPa ENE 2.0mph /  3.2km/h 6.0mph /  9.7km/h 90% 0.15in /  3.81mm
04:55 57.1 °F /  13.9 °C 54.2 °F /  12.3 °C 29.56in /  1000.9hPa ENE 2.0mph /  3.2km/h 6.0mph /  9.7km/h 90% 0.13in /  3.3mm
05:00 57.1 °F /  13.9 °C 54.2 °F /  12.3 °C 29.56in /  1000.9hPa ENE 2.0mph /  3.2km/h 6.0mph /  9.7km/h 90% 0.10in /  2.54mm
05:05 57.0 °F /  13.9 °C 54.1 °F /  12.3 °C 29.56in /  1000.9hPa East 3.0mph /  4.8km/h 8.0mph /  12.9km/h 90% 0.05in /  1.27mm
05:10 57.0 °F /  13.9 °C 54.1 °F /  12.3 °C 29.56in /  1000.9hPa East 3.0mph /  4.8km/h 10.0mph /  16.1km/h 90% 0.05in /  1.27mm
05:15 57.0 °F /  13.9 °C 54.1 °F /  12.3 °C 29.56in /  1000.9hPa East 2.0mph /  3.2km/h 10.0mph /  16.1km/h 90% 0.05in /  1.27mm
05:20 57.0 °F /  13.9 °C 54.1 °F /  12.3 °C 29.56in /  1000.9hPa East 2.0mph /  3.2km/h 7.0mph /  11.3km/h 90% 0.05in /  1.27mm
05:25 57.0 °F /  13.9 °C 54.1 °F /  12.3 °C 29.56in /  1000.9hPa East 2.0mph /  3.2km/h 5.0mph /  8km/h 90% 0.06in /  1.52mm
05:30 56.9 °F /  13.8 °C 54.0 °F /  12.2 °C 29.56in /  1000.9hPa Calm   2.0mph /  3.2km/h 90% 0.06in /  1.52mm
05:35 56.9 °F /  13.8 °C 54.0 °F /  12.2 °C 29.56in /  1000.9hPa ENE 1.0mph /  1.6km/h 10.0mph /  16.1km/h 90% 0.06in /  1.52mm
05:40 56.8 °F /  13.8 °C 53.9 °F /  12.2 °C 29.56in /  1000.9hPa East 2.0mph /  3.2km/h 6.0mph /  9.7km/h 90% 0.07in /  1.78mm
05:45 56.8 °F /  13.8 °C 53.9 °F /  12.2 °C 29.56in /  1000.9hPa East 2.0mph /  3.2km/h 3.0mph /  4.8km/h 90% 0.08in /  2.03mm
05:50 56.8 °F /  13.8 °C 53.9 °F /  12.2 °C 29.55in /  1000.6hPa East 2.0mph /  3.2km/h 7.0mph /  11.3km/h 90% 0.09in /  2.29mm
05:55 56.7 °F /  13.7 °C 53.8 °F /  12.1 °C 29.55in /  1000.6hPa ENE 2.0mph /  3.2km/h 7.0mph /  11.3km/h 90% 0.10in /  2.54mm
06:00 56.7 °F /  13.7 °C 53.8 °F /  12.1 °C 29.55in /  1000.6hPa East 2.0mph /  3.2km/h 6.0mph /  9.7km/h 90% 0.09in /  2.29mm
06:05 56.6 °F /  13.7 °C 53.7 °F /  12.1 °C 29.55in /  1000.6hPa East 3.0mph /  4.8km/h 8.0mph /  12.9km/h 90% 0.10in /  2.54mm
06:15 56.5 °F /  13.6 °C 53.9 °F /  12.2 °C 29.55in /  1000.6hPa East 3.0mph /  4.8km/h 7.0mph /  11.3km/h 91% 0.09in /  2.29mm
06:20 56.6 °F /  13.7 °C 54.0 °F /  12.2 °C 29.55in /  1000.6hPa East 3.0mph /  4.8km/h 7.0mph /  11.3km/h 91% 0.08in /  2.03mm
06:25 56.5 °F /  13.6 °C 53.9 °F /  12.2 °C 29.55in /  1000.6hPa East 3.0mph /  4.8km/h 7.0mph /  11.3km/h 91% 0.08in /  2.03mm
06:30 56.4 °F /  13.6 °C 53.8 °F /  12.1 °C 29.54in /  1000.2hPa East 3.0mph /  4.8km/h 6.0mph /  9.7km/h 91% 0.08in /  2.03mm
06:35 56.4 °F /  13.6 °C 53.8 °F /  12.1 °C 29.54in /  1000.2hPa ENE 3.0mph /  4.8km/h 6.0mph /  9.7km/h 91% 0.07in /  1.78mm
06:40 56.3 °F /  13.5 °C 53.7 °F /  12.1 °C 29.54in /  1000.2hPa ENE 1.0mph /  1.6km/h 6.0mph /  9.7km/h 91% 0.07in /  1.78mm
06:45 56.4 °F /  13.6 °C 53.8 °F /  12.1 °C 29.54in /  1000.2hPa ESE 3.0mph /  4.8km/h 8.0mph /  12.9km/h 91% 0.06in /  1.52mm
06:50 56.3 °F /  13.5 °C 53.7 °F /  12.1 °C 29.54in /  1000.2hPa ENE 3.0mph /  4.8km/h 8.0mph /  12.9km/h 91% 0.06in /  1.52mm
06:55 56.2 °F /  13.4 °C 53.3 °F /  11.8 °C 29.54in /  1000.2hPa ENE 3.0mph /  4.8km/h 6.0mph /  9.7km/h 90% 0.05in /  1.27mm
07:00 56.2 °F /  13.4 °C 53.6 °F /  12 °C 29.54in /  1000.2hPa ENE 2.0mph /  3.2km/h 5.0mph /  8km/h 91% 0.05in /  1.27mm
07:05 56.2 °F /  13.4 °C 53.6 °F /  12 °C 29.53in /  999.9hPa ENE 3.0mph /  4.8km/h 5.0mph /  8km/h 91% 0.05in /  1.27mm
07:10 56.3 °F /  13.5 °C 53.7 °F /  12.1 °C 29.53in /  999.9hPa ENE 2.0mph /  3.2km/h 6.0mph /  9.7km/h 91% 0.05in /  1.27mm
07:15 56.4 °F /  13.6 °C 53.8 °F /  12.1 °C 29.53in /  999.9hPa ENE 2.0mph /  3.2km/h 6.0mph /  9.7km/h 91% 0.04in /  1.02mm
07:20 56.6 °F /  13.7 °C 54.0 °F /  12.2 °C 29.53in /  999.9hPa ENE 3.0mph /  4.8km/h 7.0mph /  11.3km/h 91% 0.05in /  1.27mm
07:25 56.6 °F /  13.7 °C 54.0 °F /  12.2 °C 29.53in /  999.9hPa ENE 3.0mph /  4.8km/h 8.0mph /  12.9km/h 91% 0.05in /  1.27mm
07:30 56.6 °F /  13.7 °C 54.0 °F /  12.2 °C 29.53in /  999.9hPa ENE 3.0mph /  4.8km/h 8.0mph /  12.9km/h 91% 0.06in /  1.52mm
07:35 56.6 °F /  13.7 °C 54.0 °F /  12.2 °C 29.53in /  999.9hPa ENE 3.0mph /  4.8km/h 8.0mph /  12.9km/h 91% 0.07in /  1.78mm
07:40 56.5 °F /  13.6 °C 53.9 °F /  12.2 °C 29.53in /  999.9hPa ENE 3.0mph /  4.8km/h 7.0mph /  11.3km/h 91% 0.07in /  1.78mm
07:45 56.4 °F /  13.6 °C 53.8 °F /  12.1 °C 29.53in /  999.9hPa East 5.0mph /  8km/h 7.0mph /  11.3km/h 91% 0.08in /  2.03mm
07:50 56.3 °F /  13.5 °C 53.7 °F /  12.1 °C 29.53in /  999.9hPa ENE 3.0mph /  4.8km/h 8.0mph /  12.9km/h 91% 0.07in /  1.78mm
07:55 56.3 °F /  13.5 °C 53.7 °F /  12.1 °C 29.53in /  999.9hPa ENE 3.0mph /  4.8km/h 8.0mph /  12.9km/h 91% 0.09in /  2.29mm
08:00 56.2 °F /  13.4 °C 53.6 °F /  12 °C 29.52in /  999.5hPa ENE 2.0mph /  3.2km/h 8.0mph /  12.9km/h 91% 0.10in /  2.54mm
08:05 56.0 °F /  13.3 °C 53.4 °F /  11.9 °C 29.52in /  999.5hPa East 2.0mph /  3.2km/h 9.0mph /  14.5km/h 91% 0.10in /  2.54mm
08:10 56.0 °F /  13.3 °C 53.4 °F /  11.9 °C 29.52in /  999.5hPa East 2.0mph /  3.2km/h 8.0mph /  12.9km/h 91% 0.11in /  2.79mm
08:15 56.0 °F /  13.3 °C 53.4 °F /  11.9 °C 29.52in /  999.5hPa NE 4.0mph /  6.4km/h 7.0mph /  11.3km/h 91% 0.13in /  3.3mm
08:20 55.9 °F /  13.3 °C 53.3 °F /  11.8 °C 29.52in /  999.5hPa ENE 3.0mph /  4.8km/h 8.0mph /  12.9km/h 91% 0.13in /  3.3mm
08:25 55.8 °F /  13.2 °C 53.2 °F /  11.8 °C 29.52in /  999.5hPa ENE 4.0mph /  6.4km/h 9.0mph /  14.5km/h 91% 0.14in /  3.56mm
08:30 55.9 °F /  13.3 °C 53.3 °F /  11.8 °C 29.52in /  999.5hPa ENE 3.0mph /  4.8km/h 9.0mph /  14.5km/h 91% 0.14in /  3.56mm
08:35 56.0 °F /  13.3 °C 53.7 °F /  12.1 °C 29.52in /  999.5hPa ENE 3.0mph /  4.8km/h 8.0mph /  12.9km/h 92% 0.15in /  3.81mm
08:40 56.0 °F /  13.3 °C 53.7 °F /  12.1 °C 29.52in /  999.5hPa ENE 4.0mph /  6.4km/h 9.0mph /  14.5km/h 92% 0.15in /  3.81mm
08:45 55.9 °F /  13.3 °C 53.6 °F /  12 °C 29.52in /  999.5hPa ENE 4.0mph /  6.4km/h 9.0mph /  14.5km/h 92% 0.15in /  3.81mm
08:50 56.0 °F /  13.3 °C 53.7 °F /  12.1 °C 29.52in /  999.5hPa ENE 3.0mph /  4.8km/h 7.0mph /  11.3km/h 92% 0.16in /  4.06mm
08:55 56.0 °F /  13.3 °C 53.7 °F /  12.1 °C 29.52in /  999.5hPa ESE 3.0mph /  4.8km/h 10.0mph /  16.1km/h 92% 0.16in /  4.06mm
09:00 55.9 °F /  13.3 °C 53.6 °F /  12 °C 29.53in /  999.9hPa East 2.0mph /  3.2km/h 6.0mph /  9.7km/h 92% 0.17in /  4.32mm
09:05 55.8 °F /  13.2 °C 53.5 °F /  11.9 °C 29.53in /  999.9hPa East 6.0mph /  9.7km/h 8.0mph /  12.9km/h 92% 0.19in /  4.83mm
09:10 55.7 °F /  13.2 °C 53.4 °F /  11.9 °C 29.53in /  999.9hPa ENE 3.0mph /  4.8km/h 7.0mph /  11.3km/h 92% 0.20in /  5.08mm
09:15 55.7 °F /  13.2 °C 53.4 °F /  11.9 °C 29.53in /  999.9hPa East 3.0mph /  4.8km/h 9.0mph /  14.5km/h 92% 0.20in /  5.08mm
09:20 55.6 °F /  13.1 °C 53.3 °F /  11.8 °C 29.52in /  999.5hPa ENE 4.0mph /  6.4km/h 9.0mph /  14.5km/h 92% 0.21in /  5.33mm
09:25 55.5 °F /  13.1 °C 53.2 °F /  11.8 °C 29.52in /  999.5hPa ENE 4.0mph /  6.4km/h 9.0mph /  14.5km/h 92% 0.21in /  5.33mm
09:30 55.5 °F /  13.1 °C 53.2 °F /  11.8 °C 29.52in /  999.5hPa ENE 4.0mph /  6.4km/h 9.0mph /  14.5km/h 92% 0.22in /  5.59mm
09:35 55.4 °F /  13 °C 53.1 °F /  11.7 °C 29.52in /  999.5hPa ENE 4.0mph /  6.4km/h 9.0mph /  14.5km/h 92% 0.22in /  5.59mm
09:40 55.5 °F /  13.1 °C 53.2 °F /  11.8 °C 29.52in /  999.5hPa ENE 4.0mph /  6.4km/h 9.0mph /  14.5km/h 92% 0.23in /  5.84mm
09:45 55.4 °F /  13 °C 53.1 °F /  11.7 °C 29.52in /  999.5hPa East 3.0mph /  4.8km/h 9.0mph /  14.5km/h 92% 0.23in /  5.84mm
09:50 55.4 °F /  13 °C 53.1 °F /  11.7 °C 29.52in /  999.5hPa East 6.0mph /  9.7km/h 13.0mph /  20.9km/h 92% 0.23in /  5.84mm
09:55 55.4 °F /  13 °C 53.1 °F /  11.7 °C 29.51in /  999.2hPa ENE 4.0mph /  6.4km/h 13.0mph /  20.9km/h 92% 0.23in /  5.84mm
10:00 55.4 °F /  13 °C 53.1 °F /  11.7 °C 29.51in /  999.2hPa ENE 5.0mph /  8km/h 11.0mph /  17.7km/h 92% 0.22in /  5.59mm
10:05 55.4 °F /  13 °C 53.1 °F /  11.7 °C 29.51in /  999.2hPa East 7.0mph /  11.3km/h 9.0mph /  14.5km/h 92% 0.21in /  5.33mm
10:10 55.4 °F /  13 °C 53.1 °F /  11.7 °C 29.51in /  999.2hPa East 3.0mph /  4.8km/h 9.0mph /  14.5km/h 92% 0.21in /  5.33mm
10:15 55.5 °F /  13.1 °C 53.2 °F /  11.8 °C 29.51in /  999.2hPa NE 2.0mph /  3.2km/h 10.0mph /  16.1km/h 92% 0.20in /  5.08mm
10:20 55.5 °F /  13.1 °C 53.2 °F /  11.8 °C 29.51in /  999.2hPa ENE 4.0mph /  6.4km/h 10.0mph /  16.1km/h 92% 0.20in /  5.08mm
10:25 55.4 °F /  13 °C 53.1 °F /  11.7 °C 29.50in /  998.9hPa ENE 4.0mph /  6.4km/h 9.0mph /  14.5km/h 92% 0.20in /  5.08mm
10:30 55.4 °F /  13 °C 53.1 °F /  11.7 °C 29.51in /  999.2hPa ENE 4.0mph /  6.4km/h 11.0mph /  17.7km/h 92% 0.20in /  5.08mm
10:35 55.3 °F /  12.9 °C 53.0 °F /  11.7 °C 29.51in /  999.2hPa ENE 3.0mph /  4.8km/h 10.0mph /  16.1km/h 92% 0.21in /  5.33mm
10:40 55.3 °F /  12.9 °C 53.0 °F /  11.7 °C 29.50in /  998.9hPa NE 4.0mph /  6.4km/h 9.0mph /  14.5km/h 92% 0.21in /  5.33mm
10:45 55.3 °F /  12.9 °C 53.0 °F /  11.7 °C 29.51in /  999.2hPa SE 1.0mph /  1.6km/h 9.0mph /  14.5km/h 92% 0.22in /  5.59mm
10:50 55.3 °F /  12.9 °C 53.0 °F /  11.7 °C 29.51in /  999.2hPa East 3.0mph /  4.8km/h 9.0mph /  14.5km/h 92% 0.24in /  6.1mm
10:55 55.3 °F /  12.9 °C 53.0 °F /  11.7 °C 29.51in /  999.2hPa East 3.0mph /  4.8km/h 9.0mph /  14.5km/h 92% 0.25in /  6.35mm
11:00 55.2 °F /  12.9 °C 52.9 °F /  11.6 °C 29.51in /  999.2hPa East 3.0mph /  4.8km/h 7.0mph /  11.3km/h 92% 0.28in /  7.11mm
11:05 55.2 °F /  12.9 °C 52.9 °F /  11.6 °C 29.51in /  999.2hPa East 3.0mph /  4.8km/h 7.0mph /  11.3km/h 92% 0.29in /  7.37mm
11:10 55.3 °F /  12.9 °C 53.0 °F /  11.7 °C 29.50in /  998.9hPa East 3.0mph /  4.8km/h 6.0mph /  9.7km/h 92% 0.29in /  7.37mm
11:15 55.3 °F /  12.9 °C 53.0 °F /  11.7 °C 29.50in /  998.9hPa ENE 3.0mph /  4.8km/h 10.0mph /  16.1km/h 92% 0.29in /  7.37mm
11:20 55.3 °F /  12.9 °C 53.0 °F /  11.7 °C 29.50in /  998.9hPa ENE 3.0mph /  4.8km/h 10.0mph /  16.1km/h 92% 0.28in /  7.11mm
11:25 55.3 °F /  12.9 °C 53.0 °F /  11.7 °C 29.50in /  998.9hPa ENE 4.0mph /  6.4km/h 9.0mph /  14.5km/h 92% 0.27in /  6.86mm
11:30 55.3 °F /  12.9 °C 53.0 °F /  11.7 °C 29.50in /  998.9hPa NE 6.0mph /  9.7km/h 10.0mph /  16.1km/h 92% 0.26in /  6.6mm
11:35 55.3 °F /  12.9 °C 53.0 °F /  11.7 °C 29.50in /  998.9hPa East 3.0mph /  4.8km/h 8.0mph /  12.9km/h 92% 0.24in /  6.1mm
11:40 55.4 °F /  13 °C 53.1 °F /  11.7 °C 29.50in /  998.9hPa NE 3.0mph /  4.8km/h 9.0mph /  14.5km/h 92% 0.23in /  5.84mm
11:45 55.4 °F /  13 °C 53.1 °F /  11.7 °C 29.50in /  998.9hPa ENE 4.0mph /  6.4km/h 7.0mph /  11.3km/h 92% 0.22in /  5.59mm
11:50 55.3 °F /  12.9 °C 53.0 °F /  11.7 °C 29.50in /  998.9hPa NE 4.0mph /  6.4km/h 8.0mph /  12.9km/h 92% 0.20in /  5.08mm
11:55 55.3 °F /  12.9 °C 53.0 °F /  11.7 °C 29.50in /  998.9hPa ENE 3.0mph /  4.8km/h 8.0mph /  12.9km/h 92% 0.18in /  4.57mm
12:00 55.3 °F /  12.9 °C 53.0 °F /  11.7 °C 29.50in /  998.9hPa ENE 3.0mph /  4.8km/h 7.0mph /  11.3km/h 92% 0.16in /  4.06mm
12:05 55.3 °F /  12.9 °C 53.0 °F /  11.7 °C 29.50in /  998.9hPa ENE 4.0mph /  6.4km/h 8.0mph /  12.9km/h 92% 0.15in /  3.81mm
12:10 55.4 °F /  13 °C 53.1 °F /  11.7 °C 29.50in /  998.9hPa East 3.0mph /  4.8km/h 7.0mph /  11.3km/h 92% 0.16in /  4.06mm
12:15 55.5 °F /  13.1 °C 53.2 °F /  11.8 °C 29.50in /  998.9hPa NE 1.0mph /  1.6km/h 6.0mph /  9.7km/h 92% 0.16in /  4.06mm
12:20 55.5 °F /  13.1 °C 53.5 °F /  11.9 °C 29.50in /  998.9hPa ENE 3.0mph /  4.8km/h 7.0mph /  11.3km/h 93% 0.16in /  4.06mm
12:25 55.6 °F /  13.1 °C 53.3 °F /  11.8 °C 29.50in /  998.9hPa ENE 3.0mph /  4.8km/h 7.0mph /  11.3km/h 92% 0.15in /  3.81mm
12:30 55.8 °F /  13.2 °C 53.8 °F /  12.1 °C 29.50in /  998.9hPa NE 1.0mph /  1.6km/h 8.0mph /  12.9km/h 93% 0.15in /  3.81mm
12:35 56.0 °F /  13.3 °C 54.0 °F /  12.2 °C 29.50in /  998.9hPa NE 3.0mph /  4.8km/h 6.0mph /  9.7km/h 93% 0.14in /  3.56mm
12:40 56.1 °F /  13.4 °C 53.8 °F /  12.1 °C 29.49in /  998.5hPa NE 4.0mph /  6.4km/h 7.0mph /  11.3km/h 92% 0.13in /  3.3mm
12:45 56.0 °F /  13.3 °C 53.7 °F /  12.1 °C 29.50in /  998.9hPa East 3.0mph /  4.8km/h 8.0mph /  12.9km/h 92% 0.12in /  3.05mm
12:50 56.1 °F /  13.4 °C 53.8 °F /  12.1 °C 29.49in /  998.5hPa ENE 4.0mph /  6.4km/h 9.0mph /  14.5km/h 92% 0.11in /  2.79mm
12:55 56.2 °F /  13.4 °C 53.9 °F /  12.2 °C 29.49in /  998.5hPa ENE 4.0mph /  6.4km/h 9.0mph /  14.5km/h 92% 0.09in /  2.29mm
13:00 56.4 °F /  13.6 °C 54.1 °F /  12.3 °C 29.49in /  998.5hPa ENE 4.0mph /  6.4km/h 8.0mph /  12.9km/h 92% 0.07in /  1.78mm
13:05 56.8 °F /  13.8 °C 54.5 °F /  12.5 °C 29.49in /  998.5hPa NNE 6.0mph /  9.7km/h 9.0mph /  14.5km/h 92% 0.05in /  1.27mm
13:10 57.5 °F /  14.2 °C 55.2 °F /  12.9 °C 29.49in /  998.5hPa NE 3.0mph /  4.8km/h 10.0mph /  16.1km/h 92% 0.03in /  0.76mm
13:15 58.1 °F /  14.5 °C 55.5 °F /  13.1 °C 29.49in /  998.5hPa ENE 5.0mph /  8km/h 10.0mph /  16.1km/h 91% 0.02in /  0.51mm
13:20 58.7 °F /  14.8 °C 56.1 °F /  13.4 °C 29.49in /  998.5hPa ENE 5.0mph /  8km/h 10.0mph /  16.1km/h 91% 0.01in /  0.25mm
13:25 59.2 °F /  15.1 °C 56.0 °F /  13.3 °C 29.48in /  998.2hPa NE 5.0mph /  8km/h 10.0mph /  16.1km/h 89% 0.01in /  0.25mm
13:30 59.9 °F /  15.5 °C 57.0 °F /  13.9 °C 29.48in /  998.2hPa ENE 5.0mph /  8km/h 10.0mph /  16.1km/h 90% 0.00in /  0mm
13:35 60.4 °F /  15.8 °C 56.8 °F /  13.8 °C 29.48in /  998.2hPa NE 3.0mph /  4.8km/h 7.0mph /  11.3km/h 88% 0.00in /  0mm
13:40 60.6 °F /  15.9 °C 56.4 °F /  13.6 °C 29.48in /  998.2hPa ENE 4.0mph /  6.4km/h 9.0mph /  14.5km/h 86% 0.00in /  0mm
13:45 60.2 °F /  15.7 °C 56.0 °F /  13.3 °C 29.48in /  998.2hPa ESE 2.0mph /  3.2km/h 8.0mph /  12.9km/h 86% 0.00in /  0mm
13:50 59.7 °F /  15.4 °C 55.5 °F /  13.1 °C 29.48in /  998.2hPa ENE 4.0mph /  6.4km/h 8.0mph /  12.9km/h 86% 0.00in /  0mm
13:55 59.8 °F /  15.4 °C 55.6 °F /  13.1 °C 29.48in /  998.2hPa East 2.0mph /  3.2km/h 9.0mph /  14.5km/h 86% 0.00in /  0mm
14:00 60.3 °F /  15.7 °C 56.1 °F /  13.4 °C 29.48in /  998.2hPa ESE 1.0mph /  1.6km/h 5.0mph /  8km/h 86% 0.00in /  0mm
14:05 60.2 °F /  15.7 °C 56.3 °F /  13.5 °C 29.48in /  998.2hPa ENE 3.0mph /  4.8km/h 7.0mph /  11.3km/h 87% 0.00in /  0mm
14:10 60.0 °F /  15.6 °C 56.1 °F /  13.4 °C 29.48in /  998.2hPa ENE 1.0mph /  1.6km/h 6.0mph /  9.7km/h 87% 0.00in /  0mm
14:15 60.1 °F /  15.6 °C 56.5 °F /  13.6 °C 29.48in /  998.2hPa ENE 3.0mph /  4.8km/h 8.0mph /  12.9km/h 88% 0.00in /  0mm
14:20 60.3 °F /  15.7 °C 57.0 °F /  13.9 °C 29.47in /  997.9hPa ENE 3.0mph /  4.8km/h 8.0mph /  12.9km/h 89% 0.00in /  0mm
14:25 60.3 °F /  15.7 °C 57.0 °F /  13.9 °C 29.47in /  997.9hPa ENE 2.0mph /  3.2km/h 6.0mph /  9.7km/h 89% 0.00in /  0mm
14:30 60.5 °F /  15.8 °C 57.2 °F /  14 °C 29.47in /  997.9hPa ENE 2.0mph /  3.2km/h 6.0mph /  9.7km/h 89% 0.01in /  0.25mm
14:35 60.0 °F /  15.6 °C 56.7 °F /  13.7 °C 29.47in /  997.9hPa ENE 3.0mph /  4.8km/h 7.0mph /  11.3km/h 89% 0.01in /  0.25mm
14:40 59.9 °F /  15.5 °C 57.0 °F /  13.9 °C 29.47in /  997.9hPa ENE 3.0mph /  4.8km/h 7.0mph /  11.3km/h 90% 0.01in /  0.25mm
14:45 60.3 °F /  15.7 °C 57.4 °F /  14.1 °C 29.47in /  997.9hPa ENE 3.0mph /  4.8km/h 10.0mph /  16.1km/h 90% 0.01in /  0.25mm
14:50 60.3 °F /  15.7 °C 57.4 °F /  14.1 °C 29.47in /  997.9hPa ENE 3.0mph /  4.8km/h 10.0mph /  16.1km/h 90% 0.01in /  0.25mm
14:55 60.9 °F /  16.1 °C 57.9 °F /  14.4 °C 29.46in /  997.5hPa East 2.0mph /  3.2km/h 9.0mph /  14.5km/h 90% 0.01in /  0.25mm
15:00 61.2 °F /  16.2 °C 57.9 °F /  14.4 °C 29.46in /  997.5hPa East 7.0mph /  11.3km/h 10.0mph /  16.1km/h 89% 0.01in /  0.25mm
15:05 61.1 °F /  16.2 °C 58.1 °F /  14.5 °C 29.46in /  997.5hPa East 8.0mph /  12.9km/h 11.0mph /  17.7km/h 90% 0.01in /  0.25mm
15:10 61.3 °F /  16.3 °C 58.0 °F /  14.4 °C 29.46in /  997.5hPa NE 3.0mph /  4.8km/h 11.0mph /  17.7km/h 89% 0.01in /  0.25mm
15:15 61.3 °F /  16.3 °C 58.0 °F /  14.4 °C 29.46in /  997.5hPa ENE 3.0mph /  4.8km/h 9.0mph /  14.5km/h 89% 0.01in /  0.25mm
15:20 61.6 °F /  16.4 °C 58.3 °F /  14.6 °C 29.45in /  997.2hPa ENE 5.0mph /  8km/h 9.0mph /  14.5km/h 89% 0.01in /  0.25mm
15:25 61.7 °F /  16.5 °C 58.1 °F /  14.5 °C 29.45in /  997.2hPa ENE 5.0mph /  8km/h 11.0mph /  17.7km/h 88% 0.01in /  0.25mm
15:30 62.0 °F /  16.7 °C 58.4 °F /  14.7 °C 29.45in /  997.2hPa ENE 5.0mph /  8km/h 11.0mph /  17.7km/h 88% 0.00in /  0mm
15:35 62.2 °F /  16.8 °C 58.3 °F /  14.6 °C 29.45in /  997.2hPa ENE 5.0mph /  8km/h 12.0mph /  19.3km/h 87% 0.00in /  0mm
15:40 62.3 °F /  16.8 °C 58.1 °F /  14.5 °C 29.45in /  997.2hPa ENE 8.0mph /  12.9km/h 11.0mph /  17.7km/h 86% 0.00in /  0mm
15:45 62.3 °F /  16.8 °C 58.4 °F /  14.7 °C 29.44in /  996.8hPa ENE 4.0mph /  6.4km/h 9.0mph /  14.5km/h 87% 0.00in /  0mm
15:55 61.7 °F /  16.5 °C 57.8 °F /  14.3 °C 29.44in /  996.8hPa ENE 4.0mph /  6.4km/h 9.0mph /  14.5km/h 87% 0.00in /  0mm
16:00 61.4 °F /  16.3 °C 57.8 °F /  14.3 °C 29.44in /  996.8hPa NNE 5.0mph /  8km/h 11.0mph /  17.7km/h 88% 0.00in /  0mm
16:05 61.1 °F /  16.2 °C 57.5 °F /  14.2 °C 29.44in /  996.8hPa ENE 10.0mph /  16.1km/h 12.0mph /  19.3km/h 88% 0.00in /  0mm
16:10 61.2 °F /  16.2 °C 57.6 °F /  14.2 °C 29.44in /  996.8hPa NE 6.0mph /  9.7km/h 10.0mph /  16.1km/h 88% 0.00in /  0mm
16:15 61.1 °F /  16.2 °C 57.8 °F /  14.3 °C 29.44in /  996.8hPa ENE 4.0mph /  6.4km/h 10.0mph /  16.1km/h 89% 0.01in /  0.25mm
16:20 60.8 °F /  16 °C 57.5 °F /  14.2 °C 29.45in /  997.2hPa ENE 2.0mph /  3.2km/h 8.0mph /  12.9km/h 89% 0.08in /  2.03mm
16:25 60.7 °F /  15.9 °C 57.4 °F /  14.1 °C 29.45in /  997.2hPa NE 1.0mph /  1.6km/h 8.0mph /  12.9km/h 89% 0.11in /  2.79mm
16:30 60.4 °F /  15.8 °C 57.5 °F /  14.2 °C 29.45in /  997.2hPa Calm   3.0mph /  4.8km/h 90% 0.16in /  4.06mm
16:35 60.3 °F /  15.7 °C 57.4 °F /  14.1 °C 29.44in /  996.8hPa Calm   2.0mph /  3.2km/h 90% 0.19in /  4.83mm
16:40 61.3 °F /  16.3 °C 59.0 °F /  15 °C 29.44in /  996.8hPa NE 2.0mph /  3.2km/h 4.0mph /  6.4km/h 92% 0.19in /  4.83mm
16:45 61.4 °F /  16.3 °C 58.7 °F /  14.8 °C 29.44in /  996.8hPa NE 2.0mph /  3.2km/h 4.0mph /  6.4km/h 91% 0.19in /  4.83mm
16:50 61.6 °F /  16.4 °C 58.6 °F /  14.8 °C 29.44in /  996.8hPa NE 2.0mph /  3.2km/h 5.0mph /  8km/h 90% 0.19in /  4.83mm
16:55 62.1 °F /  16.7 °C 59.4 °F /  15.2 °C 29.44in /  996.8hPa ENE 1.0mph /  1.6km/h 5.0mph /  8km/h 91% 0.19in /  4.83mm
17:00 61.9 °F /  16.6 °C 58.9 °F /  14.9 °C 29.44in /  996.8hPa ENE 1.0mph /  1.6km/h 4.0mph /  6.4km/h 90% 0.19in /  4.83mm
17:05 62.0 °F /  16.7 °C 58.7 °F /  14.8 °C 29.44in /  996.8hPa NE 2.0mph /  3.2km/h 4.0mph /  6.4km/h 89% 0.19in /  4.83mm
17:10 61.9 °F /  16.6 °C 58.6 °F /  14.8 °C 29.44in /  996.8hPa NE 4.0mph /  6.4km/h 5.0mph /  8km/h 89% 0.19in /  4.83mm
17:15 61.7 °F /  16.5 °C 57.8 °F /  14.3 °C 29.44in /  996.8hPa NE 2.0mph /  3.2km/h 5.0mph /  8km/h 87% 0.18in /  4.57mm
17:20 62.1 °F /  16.7 °C 58.5 °F /  14.7 °C 29.44in /  996.8hPa ENE 2.0mph /  3.2km/h 2.0mph /  3.2km/h 88% 0.11in /  2.79mm
17:25 62.4 °F /  16.9 °C 58.5 °F /  14.7 °C 29.44in /  996.8hPa NE 1.0mph /  1.6km/h 5.0mph /  8km/h 87% 0.08in /  2.03mm
17:30 62.8 °F /  17.1 °C 59.2 °F /  15.1 °C 29.44in /  996.8hPa NE 2.0mph /  3.2km/h 3.0mph /  4.8km/h 88% 0.03in /  0.76mm
17:35 62.9 °F /  17.2 °C 59.3 °F /  15.2 °C 29.43in /  996.5hPa Calm   3.0mph /  4.8km/h 88% 0.00in /  0mm
17:40 63.1 °F /  17.3 °C 59.2 °F /  15.1 °C 29.44in /  996.8hPa Calm   4.0mph /  6.4km/h 87% 0.00in /  0mm
17:45 63.1 °F /  17.3 °C 59.2 °F /  15.1 °C 29.44in /  996.8hPa NE 5.0mph /  8km/h 7.0mph /  11.3km/h 87% 0.00in /  0mm
17:50 62.8 °F /  17.1 °C 58.9 °F /  14.9 °C 29.44in /  996.8hPa ENE 2.0mph /  3.2km/h 7.0mph /  11.3km/h 87% 0.00in /  0mm
17:55 62.6 °F /  17 °C 58.7 °F /  14.8 °C 29.44in /  996.8hPa ENE 3.0mph /  4.8km/h 7.0mph /  11.3km/h 87% 0.00in /  0mm
18:00 62.5 °F /  16.9 °C 58.6 °F /  14.8 °C 29.44in /  996.8hPa ENE 2.0mph /  3.2km/h 7.0mph /  11.3km/h 87% 0.00in /  0mm
18:05 62.3 °F /  16.8 °C 58.7 °F /  14.8 °C 29.44in /  996.8hPa Calm   2.0mph /  3.2km/h 88% 0.00in /  0mm
18:10 61.2 °F /  16.2 °C 56.7 °F /  13.7 °C 29.44in /  996.8hPa Calm   9.0mph /  14.5km/h 85% 0.03in /  0.76mm
18:15 60.2 °F /  15.7 °C 56.0 °F /  13.3 °C 29.44in /  996.8hPa Calm   4.0mph /  6.4km/h 86% 0.04in /  1.02mm
18:20 60.0 °F /  15.6 °C 56.4 °F /  13.6 °C 29.44in /  996.8hPa SSW 1.0mph /  1.6km/h 4.0mph /  6.4km/h 88% 0.04in /  1.02mm
18:25 60.3 °F /  15.7 °C 57.0 °F /  13.9 °C 29.44in /  996.8hPa SSW 1.0mph /  1.6km/h 3.0mph /  4.8km/h 89% 0.04in /  1.02mm
18:30 60.6 °F /  15.9 °C 57.7 °F /  14.3 °C 29.45in /  997.2hPa Calm   2.0mph /  3.2km/h 90% 0.04in /  1.02mm
18:35 60.3 °F /  15.7 °C 57.0 °F /  13.9 °C 29.45in /  997.2hPa NE 7.0mph /  11.3km/h 7.0mph /  11.3km/h 89% 0.04in /  1.02mm
18:40 59.6 °F /  15.3 °C 56.4 °F /  13.6 °C 29.45in /  997.2hPa ENE 4.0mph /  6.4km/h 9.0mph /  14.5km/h 89% 0.04in /  1.02mm
18:45 59.2 °F /  15.1 °C 56.0 °F /  13.3 °C 29.45in /  997.2hPa ENE 2.0mph /  3.2km/h 8.0mph /  12.9km/h 89% 0.04in /  1.02mm
18:50 59.0 °F /  15 °C 56.1 °F /  13.4 °C 29.46in /  997.5hPa ENE 3.0mph /  4.8km/h 8.0mph /  12.9km/h 90% 0.04in /  1.02mm
18:55 58.9 °F /  14.9 °C 56.0 °F /  13.3 °C 29.46in /  997.5hPa NE 2.0mph /  3.2km/h 5.0mph /  8km/h 90% 0.04in /  1.02mm
19:00 58.5 °F /  14.7 °C 55.9 °F /  13.3 °C 29.46in /  997.5hPa NNE 2.0mph /  3.2km/h 6.0mph /  9.7km/h 91% 0.05in /  1.27mm
19:05 58.4 °F /  14.7 °C 55.8 °F /  13.2 °C 29.46in /  997.5hPa NNE 1.0mph /  1.6km/h 3.0mph /  4.8km/h 91% 0.05in /  1.27mm
19:10 58.4 °F /  14.7 °C 55.8 °F /  13.2 °C 29.46in /  997.5hPa ENE 3.0mph /  4.8km/h 4.0mph /  6.4km/h 91% 0.02in /  0.51mm
19:15 58.2 °F /  14.6 °C 55.6 °F /  13.1 °C 29.46in /  997.5hPa NE 1.0mph /  1.6km/h 5.0mph /  8km/h 91% 0.01in /  0.25mm
19:20 58.2 °F /  14.6 °C 55.9 °F /  13.3 °C 29.46in /  997.5hPa ENE 2.0mph /  3.2km/h 5.0mph /  8km/h 92% 0.01in /  0.25mm
19:25 58.0 °F /  14.4 °C 55.7 °F /  13.2 °C 29.47in /  997.9hPa NE 3.0mph /  4.8km/h 6.0mph /  9.7km/h 92% 0.01in /  0.25mm
19:30 58.1 °F /  14.5 °C 55.8 °F /  13.2 °C 29.47in /  997.9hPa NE 2.0mph /  3.2km/h 6.0mph /  9.7km/h 92% 0.01in /  0.25mm
19:35 58.2 °F /  14.6 °C 55.9 °F /  13.3 °C 29.47in /  997.9hPa NE 2.0mph /  3.2km/h 6.0mph /  9.7km/h 92% 0.01in /  0.25mm
19:40 58.0 °F /  14.4 °C 55.7 °F /  13.2 °C 29.47in /  997.9hPa Calm   5.0mph /  8km/h 92% 0.01in /  0.25mm
19:45 58.0 °F /  14.4 °C 55.7 °F /  13.2 °C 29.47in /  997.9hPa NE 2.0mph /  3.2km/h 5.0mph /  8km/h 92% 0.01in /  0.25mm
19:50 57.8 °F /  14.3 °C 55.5 °F /  13.1 °C 29.48in /  998.2hPa ENE 3.0mph /  4.8km/h 6.0mph /  9.7km/h 92% 0.01in /  0.25mm
19:55 57.8 °F /  14.3 °C 55.5 °F /  13.1 °C 29.48in /  998.2hPa ENE 3.0mph /  4.8km/h 6.0mph /  9.7km/h 92% 0.01in /  0.25mm
20:00 58.0 °F /  14.4 °C 55.7 °F /  13.2 °C 29.48in /  998.2hPa ENE 2.0mph /  3.2km/h 5.0mph /  8km/h 92% 0.00in /  0mm
20:05 58.1 °F /  14.5 °C 55.8 °F /  13.2 °C 29.48in /  998.2hPa Calm   2.0mph /  3.2km/h 92% 0.00in /  0mm
20:10 58.3 °F /  14.6 °C 56.0 °F /  13.3 °C 29.48in /  998.2hPa Calm   3.0mph /  4.8km/h 92% 0.00in /  0mm
20:15 58.3 °F /  14.6 °C 56.0 °F /  13.3 °C 29.49in /  998.5hPa Calm   5.0mph /  8km/h 92% 0.00in /  0mm
20:20 58.2 °F /  14.6 °C 55.9 °F /  13.3 °C 29.49in /  998.5hPa SE 1.0mph /  1.6km/h 4.0mph /  6.4km/h 92% 0.00in /  0mm
20:25 58.1 °F /  14.5 °C 55.8 °F /  13.2 °C 29.49in /  998.5hPa SE 1.0mph /  1.6km/h 4.0mph /  6.4km/h 92% 0.00in /  0mm
20:30 58.1 °F /  14.5 °C 55.8 °F /  13.2 °C 29.49in /  998.5hPa Calm   2.0mph /  3.2km/h 92% 0.00in /  0mm
20:35 58.1 °F /  14.5 °C 55.8 °F /  13.2 °C 29.50in /  998.9hPa Calm   2.0mph /  3.2km/h 92% 0.00in /  0mm
20:40 58.1 °F /  14.5 °C 55.8 °F /  13.2 °C 29.49in /  998.5hPa East 1.0mph /  1.6km/h 2.0mph /  3.2km/h 92% 0.00in /  0mm
20:45 58.1 °F /  14.5 °C 55.8 °F /  13.2 °C 29.49in /  998.5hPa Calm   2.0mph /  3.2km/h 92% 0.00in /  0mm
20:50 58.1 °F /  14.5 °C 55.8 °F /  13.2 °C 29.50in /  998.9hPa Calm     92% 0.00in /  0mm
20:55 58.2 °F /  14.6 °C 55.9 °F /  13.3 °C 29.50in /  998.9hPa Calm     92% 0.00in /  0mm
21:00 58.2 °F /  14.6 °C 55.9 °F /  13.3 °C 29.50in /  998.9hPa Calm     92% 0.00in /  0mm
21:05 58.2 °F /  14.6 °C 55.9 °F /  13.3 °C 29.50in /  998.9hPa Calm     92% 0.00in /  0mm
21:10 58.2 °F /  14.6 °C 55.9 °F /  13.3 °C 29.50in /  998.9hPa Calm     92% 0.00in /  0mm
21:15 58.1 °F /  14.5 °C 55.8 °F /  13.2 °C 29.50in /  998.9hPa Calm     92% 0.00in /  0mm
21:20 58.0 °F /  14.4 °C 55.7 °F /  13.2 °C 29.50in /  998.9hPa Calm     92% 0.00in /  0mm
21:25 58.0 °F /  14.4 °C 55.7 °F /  13.2 °C 29.51in /  999.2hPa Calm     92% 0.00in /  0mm
21:30 58.1 °F /  14.5 °C 55.8 °F /  13.2 °C 29.51in /  999.2hPa Calm     92% 0.00in /  0mm
21:35 58.1 °F /  14.5 °C 56.1 °F /  13.4 °C 29.51in /  999.2hPa Calm     93% 0.00in /  0mm
21:40 58.0 °F /  14.4 °C 56.0 °F /  13.3 °C 29.51in /  999.2hPa Calm     93% 0.00in /  0mm
21:45 58.1 °F /  14.5 °C 56.1 °F /  13.4 °C 29.51in /  999.2hPa Calm     93% 0.00in /  0mm
21:50 58.0 °F /  14.4 °C 56.0 °F /  13.3 °C 29.51in /  999.2hPa Calm     93% 0.00in /  0mm
21:55 58.0 °F /  14.4 °C 56.0 °F /  13.3 °C 29.51in /  999.2hPa Calm     93% 0.00in /  0mm
22:00 58.0 °F /  14.4 °C 56.0 °F /  13.3 °C 29.51in /  999.2hPa Calm   2.0mph /  3.2km/h 93% 0.00in /  0mm
22:05 57.9 °F /  14.4 °C 55.9 °F /  13.3 °C 29.51in /  999.2hPa Calm   2.0mph /  3.2km/h 93% 0.00in /  0mm
22:10 57.8 °F /  14.3 °C 55.8 °F /  13.2 °C 29.52in /  999.5hPa Calm   2.0mph /  3.2km/h 93% 0.00in /  0mm
22:15 57.6 °F /  14.2 °C 55.6 °F /  13.1 °C 29.52in /  999.5hPa WSW 2.0mph /  3.2km/h 4.0mph /  6.4km/h 93% 0.00in /  0mm
22:20 57.4 °F /  14.1 °C 55.4 °F /  13 °C 29.51in /  999.2hPa WSW 1.0mph /  1.6km/h 4.0mph /  6.4km/h 93% 0.00in /  0mm
22:25 57.3 °F /  14.1 °C 55.0 °F /  12.8 °C 29.51in /  999.2hPa WSW 1.0mph /  1.6km/h 4.0mph /  6.4km/h 92% 0.00in /  0mm
22:30 57.2 °F /  14 °C 54.9 °F /  12.7 °C 29.51in /  999.2hPa Calm     92% 0.00in /  0mm
22:35 57.0 °F /  13.9 °C 54.7 °F /  12.6 °C 29.51in /  999.2hPa Calm     92% 0.00in /  0mm
22:40 56.7 °F /  13.7 °C 54.4 °F /  12.4 °C 29.51in /  999.2hPa Calm     92% 0.00in /  0mm
22:45 56.5 °F /  13.6 °C 54.2 °F /  12.3 °C 29.51in /  999.2hPa Calm     92% 0.00in /  0mm
22:50 56.2 °F /  13.4 °C 53.9 °F /  12.2 °C 29.51in /  999.2hPa Calm     92% 0.00in /  0mm
22:55 56.0 °F /  13.3 °C 54.0 °F /  12.2 °C 29.51in /  999.2hPa Calm   1.0mph /  1.6km/h 93% 0.00in /  0mm
23:00 55.9 °F /  13.3 °C 53.9 °F /  12.2 °C 29.51in /  999.2hPa Calm   1.0mph /  1.6km/h 93% 0.00in /  0mm
23:05 55.7 °F /  13.2 °C 53.7 °F /  12.1 °C 29.52in /  999.5hPa Calm   3.0mph /  4.8km/h 93% 0.00in /  0mm
23:10 55.8 °F /  13.2 °C 53.8 °F /  12.1 °C 29.52in /  999.5hPa SW 1.0mph /  1.6km/h 4.0mph /  6.4km/h 93% 0.00in /  0mm
23:20 56.1 °F /  13.4 °C 54.1 °F /  12.3 °C 29.52in /  999.5hPa WSW 1.0mph /  1.6km/h 5.0mph /  8km/h 93% 0.00in /  0mm
23:25 56.0 °F /  13.3 °C 54.0 °F /  12.2 °C 29.52in /  999.5hPa WSW 3.0mph /  4.8km/h 8.0mph /  12.9km/h 93% 0.00in /  0mm
23:30 56.0 °F /  13.3 °C 54.0 °F /  12.2 °C 29.52in /  999.5hPa West 2.0mph /  3.2km/h 7.0mph /  11.3km/h 93% 0.00in /  0mm
23:35 56.0 °F /  13.3 °C 54.0 °F /  12.2 °C 29.52in /  999.5hPa West 3.0mph /  4.8km/h 9.0mph /  14.5km/h 93% 0.00in /  0mm
23:40 55.8 °F /  13.2 °C 53.8 °F /  12.1 °C 29.52in /  999.5hPa West 4.0mph /  6.4km/h 8.0mph /  12.9km/h 93% 0.00in /  0mm
23:45 55.7 °F /  13.2 °C 53.7 °F /  12.1 °C 29.52in /  999.5hPa West 1.0mph /  1.6km/h 5.0mph /  8km/h 93% 0.00in /  0mm
23:50 55.6 °F /  13.1 °C 53.6 °F /  12 °C 29.52in /  999.5hPa SW 4.0mph /  6.4km/h 4.0mph /  6.4km/h 93% 0.00in /  0mm
23:55 55.5 °F /  13.1 °C 53.5 °F /  11.9 °C 29.52in /  999.5hPa WSW 2.0mph /  3.2km/h 6.0mph /  9.7km/h 93% 0.00in /  0mm
Buffalo, New York, USA
Compliments of Weather Underground - 2.5 mb